Time;durP1;ratioP1;P1;durP2;ratioP2;P2;SDS_P1;SDS_P2;PMS_P1;PMS_P2;Temp;Humidity;BMP_temperature;BMP_pressure;BME280_temperature;BME280_humidity;BME280_pressure;Samples;Min_cycle;Max_cycle;Signal;HPM_P1;HPM_P2
2021/08/16 00:00:59;;;;;;;7.68;2.55;;;20.40;99.90;;;;;;6731531;88;20182;-77
2021/08/16 00:22:02;;;;;;;4.30;2.20;;;20.10;99.90;;;;;;6734468;88;20158;-81
2021/08/16 00:32:03;;;;;;;4.95;1.85;;;20.00;99.90;;;;;;6728771;88;20196;-81
2021/08/16 00:42:09;;;;;;;4.35;1.50;;;19.70;99.90;;;;;;6713702;88;20151;-80
2021/08/16 00:52:10;;;;;;;5.37;1.60;;;19.50;99.90;;;;;;6678783;89;20188;-80
2021/08/16 01:02:11;;;;;;;3.70;1.48;;;19.40;99.90;;;;;;6679144;89;20821;-80
2021/08/16 01:12:12;;;;;;;3.78;1.33;;;18.90;99.90;;;;;;6678750;88;20190;-79
2021/08/16 01:22:13;;;;;;;3.85;1.30;;;18.60;99.90;;;;;;6707210;88;20199;-79
2021/08/16 01:32:14;;;;;;;2.78;1.00;;;18.30;99.90;;;;;;6714895;88;20309;-80
2021/08/16 01:42:14;;;;;;;3.95;1.00;;;18.00;99.90;;;;;;6704604;88;20195;-79
2021/08/16 01:52:15;;;;;;;4.87;0.93;;;17.80;99.90;;;;;;6710688;88;20183;-80
2021/08/16 02:02:15;;;;;;;2.85;0.90;;;17.70;99.90;;;;;;6715128;88;21329;-80
2021/08/16 02:12:16;;;;;;;2.53;0.80;;;17.60;99.90;;;;;;6714286;88;20215;-81
2021/08/16 02:22:17;;;;;;;2.53;0.95;;;17.50;99.90;;;;;;6716210;88;20200;-80
2021/08/16 02:32:18;;;;;;;3.83;1.00;;;17.20;99.90;;;;;;6713035;88;20177;-80
2021/08/16 02:42:18;;;;;;;2.60;1.15;;;17.10;99.90;;;;;;6713064;88;20752;-80
2021/08/16 02:52:19;;;;;;;3.95;1.27;;;16.90;99.90;;;;;;6699125;88;20224;-79
2021/08/16 03:02:20;;;;;;;3.87;1.00;;;16.90;99.90;;;;;;6695985;88;20289;-78
2021/08/16 03:12:20;;;;;;;3.50;1.17;;;16.70;99.90;;;;;;6708187;88;20195;-78
2021/08/16 03:22:21;;;;;;;3.97;1.00;;;16.60;99.90;;;;;;6713291;88;20538;-79
2021/08/16 03:32:21;;;;;;;3.70;1.02;;;16.50;99.90;;;;;;6708865;88;20285;-79
2021/08/16 03:42:22;;;;;;;2.37;0.98;;;16.40;99.90;;;;;;6712063;88;20203;-78
2021/08/16 03:52:22;;;;;;;2.65;0.93;;;16.40;99.90;;;;;;6709494;88;20271;-78
2021/08/16 04:02:23;;;;;;;4.07;0.90;;;16.40;99.90;;;;;;6709605;88;20257;-78
2021/08/16 04:12:24;;;;;;;4.80;1.00;;;16.50;99.90;;;;;;6705237;88;20233;-78
2021/08/16 04:22:24;;;;;;;4.07;1.00;;;16.40;99.90;;;;;;6708792;88;20211;-79
2021/08/16 04:32:25;;;;;;;7.10;1.87;;;16.40;99.90;;;;;;6712832;88;20259;-79
2021/08/16 04:42:25;;;;;;;3.23;0.90;;;16.30;99.90;;;;;;6713060;88;20212;-78
2021/08/16 04:52:26;;;;;;;3.42;1.10;;;16.20;99.90;;;;;;6719965;88;20484;-80
2021/08/16 05:02:27;;;;;;;4.05;1.00;;;16.20;99.90;;;;;;6716991;88;20279;-78
2021/08/16 05:12:27;;;;;;;3.83;0.90;;;16.40;99.90;;;;;;6717975;88;20682;-78
2021/08/16 05:22:28;;;;;;;5.20;1.10;;;16.50;99.90;;;;;;6714131;88;20206;-79
2021/08/16 05:32:30;;;;;;;2.60;1.10;;;16.60;99.90;;;;;;6714686;88;20259;-79
2021/08/16 05:42:31;;;;;;;2.70;1.00;;;16.70;99.90;;;;;;6708111;88;20246;-78
2021/08/16 05:52:32;;;;;;;3.00;1.10;;;17.00;99.90;;;;;;6706960;88;20344;-79
2021/08/16 06:02:34;;;;;;;4.90;1.10;;;17.10;99.90;;;;;;6719049;88;20819;-80
2021/08/16 06:12:34;;;;;;;4.78;1.30;;;17.30;99.90;;;;;;6727378;77;20201;-77
2021/08/16 06:22:36;;;;;;;5.47;1.00;;;17.50;99.90;;;;;;6720076;88;20614;-78
2021/08/16 06:32:37;;;;;;;5.22;1.50;;;17.60;99.90;;;;;;6711302;88;20242;-77
2021/08/16 06:42:38;;;;;;;3.50;0.85;;;17.80;99.90;;;;;;6702094;88;20657;-78
2021/08/16 06:52:38;;;;;;;6.03;1.00;;;18.10;99.90;;;;;;6701353;88;20592;-77
2021/08/16 07:02:40;;;;;;;4.68;1.20;;;18.20;99.90;;;;;;6697198;88;20636;-77
2021/08/16 07:12:40;;;;;;;3.05;1.08;;;18.30;99.90;;;;;;6698833;88;20268;-78
2021/08/16 07:22:41;;;;;;;2.53;1.00;;;18.60;99.90;;;;;;6703923;88;20231;-78
2021/08/16 07:32:41;;;;;;;2.35;0.80;;;18.70;99.90;;;;;;6687618;88;20229;-78
2021/08/16 07:42:42;;;;;;;5.53;0.90;;;18.70;99.90;;;;;;6686427;88;20186;-78
2021/08/16 07:52:44;;;;;;;3.40;0.80;;;19.00;99.90;;;;;;6696663;88;20223;-78
2021/08/16 08:02:46;;;;;;;6.60;1.00;;;19.40;99.90;;;;;;6688120;88;20268;-78
2021/08/16 08:12:47;;;;;;;2.72;0.90;;;19.40;99.90;;;;;;6689660;88;20203;-78
2021/08/16 08:22:48;;;;;;;5.03;1.62;;;19.20;99.90;;;;;;6684566;88;20226;-76
2021/08/16 08:32:52;;;;;;;3.90;1.10;;;19.50;99.90;;;;;;6686319;88;20313;-78
2021/08/16 08:42:54;;;;;;;4.57;1.00;;;19.40;99.90;;;;;;6686802;88;20239;-78
2021/08/16 08:53:00;;;;;;;4.53;1.30;;;20.90;99.90;;;;;;6690111;88;20178;-76
2021/08/16 09:03:03;;;;;;;2.58;1.10;;;22.10;99.90;;;;;;6687419;88;20184;-76
2021/08/16 09:13:03;;;;;;;4.65;1.20;;;23.00;99.90;;;;;;6697105;88;20727;-76
2021/08/16 09:23:14;;;;;;;5.40;0.90;;;22.30;99.90;;;;;;6695261;88;20282;-77
2021/08/16 09:33:17;;;;;;;5.50;1.30;;;22.80;99.90;;;;;;6693775;88;20167;-77
2021/08/16 09:43:25;;;;;;;5.23;1.20;;;22.40;99.90;;;;;;6693467;88;20778;-76
2021/08/16 09:53:26;;;;;;;3.60;1.12;;;22.20;99.90;;;;;;6692024;88;20241;-76
2021/08/16 10:03:27;;;;;;;3.37;1.00;;;21.90;99.90;;;;;;6692512;88;20195;-76
2021/08/16 10:13:28;;;;;;;5.55;1.20;;;21.70;99.90;;;;;;6694750;88;20346;-77
2021/08/16 10:23:28;;;;;;;4.70;1.30;;;21.30;99.90;;;;;;6687344;88;20301;-75
2021/08/16 10:33:29;;;;;;;4.57;1.27;;;21.90;99.90;;;;;;6698768;88;20307;-75
2021/08/16 10:43:34;;;;;;;5.65;1.73;;;22.40;99.90;;;;;;6687993;88;20263;-76
2021/08/16 10:53:47;;;;;;;3.42;1.20;;;22.10;99.90;;;;;;6692593;88;20897;-75
2021/08/16 11:03:55;;;;;;;5.53;1.45;;;23.20;99.90;;;;;;6696896;88;20415;-75
2021/08/16 11:14:09;;;;;;;3.83;1.20;;;22.90;99.90;;;;;;6697441;88;20190;-75
2021/08/16 11:24:10;;;;;;;3.25;1.30;;;22.30;99.90;;;;;;6697182;88;20289;-75
2021/08/16 11:34:10;;;;;;;2.80;1.10;;;22.80;99.90;;;;;;6692862;88;20658;-76
2021/08/16 11:44:16;;;;;;;4.18;1.30;;;23.80;99.90;;;;;;6697233;88;20980;-75
2021/08/16 11:54:28;;;;;;;5.03;1.52;;;23.30;99.90;;;;;;6700515;88;20267;-75
2021/08/16 12:04:29;;;;;;;4.25;1.42;;;22.50;99.90;;;;;;6688240;88;20191;-75
2021/08/16 12:14:32;;;;;;;6.32;1.85;;;21.90;99.90;;;;;;6722216;77;20172;-76
2021/08/16 12:24:34;;;;;;;3.97;1.92;;;21.80;99.90;;;;;;6728499;88;20217;-78
2021/08/16 12:34:35;;;;;;;2.45;1.30;;;19.40;99.90;;;;;;6726302;88;20214;-77
2021/08/16 12:44:37;;;;;;;3.60;2.12;;;18.10;99.90;;;;;;6728747;88;20192;-77
2021/08/16 12:54:38;;;;;;;5.47;3.17;;;17.00;99.90;;;;;;6731648;88;20682;-77
2021/08/16 13:04:38;;;;;;;12.35;5.35;;;16.10;99.90;;;;;;6723610;88;20202;-77
2021/08/16 13:14:40;;;;;;;13.13;6.87;;;15.80;99.90;;;;;;6724076;88;20324;-77
2021/08/16 13:24:41;;;;;;;17.40;7.35;;;15.70;99.90;;;;;;6730233;88;20178;-76
2021/08/16 13:34:42;;;;;;;15.18;8.27;;;15.80;99.90;;;;;;6735194;88;20210;-76
2021/08/16 13:44:42;;;;;;;15.82;7.50;;;15.90;99.90;;;;;;6723686;88;20279;-76
2021/08/16 13:54:43;;;;;;;17.45;8.30;;;16.40;99.90;;;;;;6742564;88;20220;-77
2021/08/16 14:04:44;;;;;;;20.55;8.23;;;16.40;99.90;;;;;;6728405;88;20226;-77
2021/08/16 14:14:45;;;;;;;20.77;9.18;;;16.10;99.90;;;;;;6722087;88;20211;-77
2021/08/16 14:24:45;;;;;;;19.40;9.52;;;15.90;99.90;;;;;;6727420;88;20274;-76
2021/08/16 14:34:46;;;;;;;16.65;8.48;;;16.30;99.90;;;;;;6733911;88;20187;-77
2021/08/16 14:44:47;;;;;;;19.33;9.27;;;16.50;99.90;;;;;;6724985;88;20263;-77
2021/08/16 14:54:48;;;;;;;18.48;8.45;;;17.10;99.90;;;;;;6725422;88;20189;-77
2021/08/16 15:04:48;;;;;;;16.70;9.05;;;18.00;99.90;;;;;;6725286;88;20196;-77
2021/08/16 15:14:49;;;;;;;19.42;9.32;;;17.60;99.90;;;;;;6724575;88;20189;-77
2021/08/16 15:24:49;;;;;;;17.48;9.25;;;17.30;99.90;;;;;;6721223;88;20185;-77
2021/08/16 15:34:52;;;;;;;18.00;8.80;;;17.40;99.90;;;;;;6722893;88;20321;-77
2021/08/16 15:44:53;;;;;;;9.32;3.97;;;17.80;99.90;;;;;;6736396;88;20208;-76
2021/08/16 15:54:54;;;;;;;7.57;3.80;;;16.00;99.90;;;;;;6739779;88;20226;-79
2021/08/16 16:04:55;;;;;;;8.63;3.75;;;15.60;99.90;;;;;;6734399;88;20190;-77
2021/08/16 16:14:56;;;;;;;8.05;3.83;;;15.20;99.90;;;;;;6732917;88;21009;-75
2021/08/16 16:24:56;;;;;;;10.30;4.30;;;15.20;99.90;;;;;;6747895;88;20200;-75
2021/08/16 16:34:57;;;;;;;10.05;3.35;;;15.20;99.90;;;;;;6730184;88;20588;-74
2021/08/16 16:44:58;;;;;;;10.83;3.87;;;15.20;99.90;;;;;;6725478;88;20258;-75
2021/08/16 16:54:58;;;;;;;12.55;3.80;;;14.60;99.90;;;;;;6740496;88;20692;-75
2021/08/16 17:04:59;;;;;;;11.52;4.20;;;14.20;99.90;;;;;;6727097;88;20225;-75
2021/08/16 17:15:00;;;;;;;8.10;2.90;;;14.00;99.90;;;;;;6736166;88;20236;-74
2021/08/16 17:25:01;;;;;;;6.95;2.75;;;13.80;99.90;;;;;;6721560;88;20214;-74
2021/08/16 17:35:02;;;;;;;11.93;3.35;;;13.70;99.90;;;;;;6719918;88;20194;-77
2021/08/16 17:45:03;;;;;;;7.47;2.75;;;13.60;99.90;;;;;;6726899;88;20710;-77
2021/08/16 17:55:04;;;;;;;9.60;2.90;;;13.60;99.90;;;;;;6735451;88;20179;-76
2021/08/16 18:05:05;;;;;;;7.82;3.05;;;13.40;99.90;;;;;;6738999;88;20725;-77
2021/08/16 18:15:47;;;;;;;9.02;3.10;;;13.40;99.90;;;;;;6739798;77;20613;-75
2021/08/16 18:25:48;;;;;;;11.18;3.78;;;13.60;99.90;;;;;;6717114;88;20233;-77
2021/08/16 18:35:50;;;;;;;7.85;3.40;;;13.60;99.90;;;;;;6720899;88;20182;-77
2021/08/16 18:45:50;;;;;;;9.48;3.55;;;13.70;99.90;;;;;;6722528;88;20214;-76
2021/08/16 18:55:51;;;;;;;11.05;3.80;;;13.70;99.90;;;;;;6716091;88;20247;-77
2021/08/16 19:05:52;;;;;;;8.50;3.22;;;13.50;99.90;;;;;;6728520;88;20783;-76
2021/08/16 19:15:53;;;;;;;7.18;3.22;;;13.50;99.90;;;;;;6717057;88;20713;-77
2021/08/16 19:25:53;;;;;;;9.85;3.75;;;13.40;99.90;;;;;;6716567;88;20206;-75
2021/08/16 19:35:58;;;;;;;6.95;2.95;;;13.30;99.90;;;;;;6716580;88;20190;-77
2021/08/16 19:45:59;;;;;;;7.73;3.13;;;13.10;99.90;;;;;;6709469;88;20198;-76
2021/08/16 19:56:01;;;;;;;8.48;3.08;;;13.20;99.90;;;;;;6712722;88;20306;-75
2021/08/16 20:06:02;;;;;;;10.35;3.75;;;13.20;99.90;;;;;;6709338;88;20215;-75
2021/08/16 20:16:02;;;;;;;9.38;3.10;;;13.10;99.90;;;;;;6709031;88;20731;-75
2021/08/16 20:26:03;;;;;;;11.52;3.60;;;13.10;99.90;;;;;;6723101;88;20731;-76
2021/08/16 20:36:04;;;;;;;12.52;4.07;;;13.00;99.90;;;;;;6722611;88;20248;-74
2021/08/16 20:46:05;;;;;;;11.43;3.92;;;13.00;99.90;;;;;;6717832;88;20216;-74
2021/08/16 20:56:06;;;;;;;10.45;4.18;;;12.90;99.90;;;;;;6720267;88;20192;-74
2021/08/16 21:06:07;;;;;;;9.32;3.92;;;12.90;99.90;;;;;;6722775;88;20197;-74
2021/08/16 21:16:07;;;;;;;10.68;4.32;;;12.80;99.90;;;;;;6727077;88;20189;-75
2021/08/16 21:26:09;;;;;;;10.27;3.92;;;12.80;99.90;;;;;;6728847;88;20201;-75
2021/08/16 21:36:10;;;;;;;10.38;3.90;;;12.80;99.90;;;;;;6716948;88;20202;-75
2021/08/16 21:46:10;;;;;;;13.57;4.18;;;12.70;99.90;;;;;;6719929;88;20182;-75
2021/08/16 21:56:11;;;;;;;12.88;4.25;;;12.60;99.90;;;;;;6713259;88;20186;-75
2021/08/16 22:06:11;;;;;;;17.08;4.07;;;12.50;99.90;;;;;;6720683;88;20255;-75
2021/08/16 22:16:12;;;;;;;11.38;3.83;;;12.50;99.90;;;;;;6713755;88;20215;-75
2021/08/16 22:26:12;;;;;;;10.88;3.70;;;12.50;99.90;;;;;;6720381;88;20256;-75
2021/08/16 22:36:13;;;;;;;8.02;3.55;;;12.70;99.90;;;;;;6721871;88;20207;-75
2021/08/16 22:46:14;;;;;;;9.95;3.28;;;12.80;99.90;;;;;;6722103;88;20174;-76
2021/08/16 22:56:14;;;;;;;10.93;3.67;;;12.80;99.90;;;;;;6724957;88;20214;-75
2021/08/16 23:06:15;;;;;;;11.52;3.72;;;12.80;99.90;;;;;;6722764;88;20201;-75
2021/08/16 23:16:15;;;;;;;13.43;3.90;;;12.90;99.90;;;;;;6716961;88;20624;-76
2021/08/16 23:26:16;;;;;;;11.95;3.62;;;12.90;99.90;;;;;;6721096;88;20264;-76
2021/08/16 23:36:17;;;;;;;10.03;3.60;;;13.00;99.90;;;;;;6725601;88;20193;-76
2021/08/16 23:46:18;;;;;;;11.93;4.40;;;13.00;99.90;;;;;;6720062;88;20542;-76
2021/08/16 23:56:19;;;;;;;10.35;3.85;;;12.90;99.90;;;;;;6723920;88;20232;-75
